Time;durP1;ratioP1;P1;durP2;ratioP2;P2;SDS_P1;SDS_P2;PMS_P1;PMS_P2;Temp;Humidity;BMP_temperature;BMP_pressure;BME280_temperature;BME280_humidity;BME280_pressure;Samples;Min_cycle;Max_cycle;Signal;HPM_P1;HPM_P2
2022/09/01 00:01:27;;;;;;;2.17;2.17;;;24.80;65.60;;;;;;5006481;28;43414;-71
2022/09/01 00:04:03;;;;;;;1.80;1.80;;;24.80;65.50;;;;;;5005285;28;43388;-74
2022/09/01 00:06:33;;;;;;;1.90;1.90;;;24.80;66.10;;;;;;5010027;28;43380;-73
2022/09/01 00:09:03;;;;;;;1.97;1.97;;;24.70;66.00;;;;;;5009279;28;43758;-74
2022/09/01 00:11:31;;;;;;;1.83;1.83;;;24.80;65.70;;;;;;5009715;28;43336;-72
2022/09/01 00:14:00;;;;;;;2.00;2.00;;;24.90;65.30;;;;;;5009599;28;43413;-72
2022/09/01 00:16:29;;;;;;;1.90;1.90;;;25.00;65.00;;;;;;5010500;28;43510;-73
2022/09/01 00:18:59;;;;;;;2.20;2.20;;;25.00;65.00;;;;;;5009206;28;43878;-73
2022/09/01 00:21:28;;;;;;;1.77;1.77;;;25.00;65.10;;;;;;5009551;28;43347;-71
2022/09/01 00:23:57;;;;;;;2.10;2.10;;;24.90;65.20;;;;;;5009450;28;43930;-74
2022/09/01 00:26:25;;;;;;;2.00;2.00;;;24.80;65.60;;;;;;5009999;28;43519;-72
2022/09/01 00:28:53;;;;;;;1.77;1.77;;;24.80;65.60;;;;;;5009227;28;43775;-72
2022/09/01 00:31:21;;;;;;;2.00;2.00;;;24.80;65.60;;;;;;5009226;28;43359;-70
2022/09/01 00:33:49;;;;;;;1.97;1.97;;;24.70;65.50;;;;;;5007682;28;43483;-72
2022/09/01 00:36:19;;;;;;;1.80;1.80;;;24.70;66.20;;;;;;5007638;28;43614;-72
2022/09/01 00:38:47;;;;;;;1.90;1.90;;;24.70;66.10;;;;;;5009392;28;44005;-71
2022/09/01 00:41:15;;;;;;;2.03;2.03;;;24.70;66.10;;;;;;5007328;28;44812;-71
2022/09/01 00:43:44;;;;;;;1.77;1.77;;;24.70;65.80;;;;;;5007929;28;43847;-72
2022/09/01 00:46:14;;;;;;;1.90;1.90;;;24.60;66.40;;;;;;5009718;28;43445;-72
2022/09/01 00:48:47;;;;;;;1.80;1.80;;;24.70;66.40;;;;;;5007118;28;45999;-71
2022/09/01 00:51:15;;;;;;;1.63;1.63;;;24.70;66.00;;;;;;5023570;28;44693;-72
2022/09/01 00:53:45;;;;;;;2.03;2.03;;;24.80;66.10;;;;;;5009727;28;43324;-71
2022/09/01 00:56:13;;;;;;;1.80;1.80;;;24.90;65.20;;;;;;5008800;28;43445;-71
2022/09/01 00:58:41;;;;;;;1.70;1.70;;;24.90;65.20;;;;;;5023827;28;45896;-71
2022/09/01 01:01:09;;;;;;;1.93;1.93;;;24.90;65.30;;;;;;5008099;28;43968;-73
2022/09/01 01:03:38;;;;;;;1.90;1.90;;;24.90;65.70;;;;;;5006539;28;43433;-73
2022/09/01 01:06:07;;;;;;;1.90;1.90;;;24.80;65.70;;;;;;5023047;28;43416;-75
2022/09/01 01:08:37;;;;;;;1.90;1.90;;;24.80;65.80;;;;;;5007678;28;43655;-74
2022/09/01 01:11:08;;;;;;;2.10;2.10;;;24.80;65.60;;;;;;5021924;28;45027;-75
2022/09/01 01:13:47;;;;;;;2.00;2.00;;;24.70;65.80;;;;;;5007817;28;43398;-73
2022/09/01 01:16:15;;;;;;;2.00;2.00;;;24.70;66.20;;;;;;5006392;28;43364;-75
2022/09/01 01:18:43;;;;;;;1.97;1.97;;;24.70;65.80;;;;;;5023088;28;45727;-73
2022/09/01 01:24:02;;;;;;;2.00;2.00;;;25.00;65.20;;;;;;5007122;28;43414;-74
2022/09/01 01:26:32;;;;;;;1.90;1.90;;;25.00;65.20;;;;;;4970621;28;43608;-74
2022/09/01 01:29:01;;;;;;;1.90;1.90;;;24.90;65.20;;;;;;4969420;28;45794;-73
2022/09/01 01:31:31;;;;;;;1.90;1.90;;;24.80;65.30;;;;;;4969628;28;44679;-74
2022/09/01 01:34:00;;;;;;;1.90;1.90;;;24.80;65.70;;;;;;4969193;28;43915;-72
2022/09/01 01:36:31;;;;;;;2.10;2.10;;;24.80;65.80;;;;;;4970153;28;43632;-74
2022/09/01 01:39:02;;;;;;;1.90;1.90;;;24.70;65.60;;;;;;4968795;28;44303;-73
2022/09/01 01:41:39;;;;;;;1.80;1.80;;;24.70;65.80;;;;;;4969932;28;44055;-74
2022/09/01 01:44:08;;;;;;;1.87;1.87;;;24.70;66.20;;;;;;4979747;28;43306;-74
2022/09/01 01:46:36;;;;;;;1.90;1.90;;;24.70;65.80;;;;;;4987495;28;43825;-74
2022/09/01 01:49:04;;;;;;;1.90;1.90;;;24.80;65.50;;;;;;4986623;28;45135;-75
2022/09/01 01:51:33;;;;;;;2.00;2.00;;;25.00;65.10;;;;;;4969490;28;43823;-74
2022/09/01 01:54:04;;;;;;;2.00;2.00;;;25.00;65.00;;;;;;4985230;28;43370;-72
2022/09/01 01:56:34;;;;;;;1.87;1.87;;;25.00;65.00;;;;;;4969576;28;43969;-73
2022/09/01 01:59:04;;;;;;;2.00;2.00;;;24.90;65.10;;;;;;4968714;28;46216;-73
2022/09/01 02:01:35;;;;;;;2.10;2.10;;;24.80;65.60;;;;;;4969058;28;45035;-73
2022/09/01 02:04:04;;;;;;;1.90;1.90;;;24.80;65.70;;;;;;4968777;28;43911;-74
2022/09/01 02:06:33;;;;;;;1.90;1.80;;;24.80;65.70;;;;;;4969301;28;43464;-72
2022/09/01 02:09:03;;;;;;;2.17;2.17;;;24.70;65.50;;;;;;4968620;28;45634;-74
2022/09/01 02:11:32;;;;;;;1.90;1.90;;;24.70;66.10;;;;;;4969077;28;44726;-73
2022/09/01 02:14:00;;;;;;;2.00;2.00;;;24.60;66.20;;;;;;4985078;28;43386;-73
2022/09/01 02:16:31;;;;;;;2.10;2.10;;;24.70;66.20;;;;;;4987226;28;43538;-74
2022/09/01 02:19:02;;;;;;;1.90;1.90;;;24.60;65.90;;;;;;4968392;28;45762;-73
2022/09/01 02:21:31;;;;;;;1.90;1.90;;;24.60;66.10;;;;;;4968521;28;44932;-73
2022/09/01 02:24:00;;;;;;;1.80;1.80;;;24.60;66.60;;;;;;4986343;28;43358;-72
2022/09/01 02:26:32;;;;;;;1.80;1.80;;;24.60;66.40;;;;;;5006966;28;43593;-73
2022/09/01 02:29:03;;;;;;;2.00;2.00;;;24.60;66.10;;;;;;4988254;28;45656;-74
2022/09/01 02:31:34;;;;;;;1.73;1.73;;;24.50;66.10;;;;;;4988354;28;44600;-75
2022/09/01 02:34:02;;;;;;;2.03;2.03;;;24.50;66.70;;;;;;4987986;28;43680;-74
2022/09/01 02:36:33;;;;;;;2.10;2.10;;;24.60;66.40;;;;;;4989003;28;43481;-73
2022/09/01 02:39:02;;;;;;;1.87;1.87;;;24.70;65.90;;;;;;4987703;28;45877;-74
2022/09/01 02:41:33;;;;;;;1.87;1.87;;;24.80;65.40;;;;;;5006272;28;43482;-74
2022/09/01 02:44:02;;;;;;;1.87;1.87;;;25.00;65.10;;;;;;4988222;28;43385;-75
2022/09/01 02:46:30;;;;;;;1.80;1.80;;;25.00;64.90;;;;;;4999052;28;43409;-74
2022/09/01 02:49:03;;;;;;;1.70;1.70;;;25.00;64.90;;;;;;4981735;28;46324;-74
2022/09/01 02:51:32;;;;;;;1.83;1.83;;;24.90;65.20;;;;;;4982422;28;43437;-74
2022/09/01 02:54:00;;;;;;;1.77;1.77;;;24.90;65.40;;;;;;4987712;28;43338;-73
2022/09/01 02:56:28;;;;;;;2.07;2.07;;;24.80;65.40;;;;;;4988684;28;43549;-73
2022/09/01 02:58:56;;;;;;;1.80;1.80;;;24.80;65.30;;;;;;4987653;28;45716;-73
2022/09/01 03:01:28;;;;;;;2.00;2.00;;;24.70;65.70;;;;;;4987764;28;44817;-74
2022/09/01 03:04:02;;;;;;;1.70;1.70;;;24.70;66.00;;;;;;5004511;28;43357;-75
2022/09/01 03:06:32;;;;;;;2.03;2.03;;;24.70;65.90;;;;;;4988371;28;43899;-74
2022/09/01 03:09:01;;;;;;;2.10;2.10;;;24.70;65.70;;;;;;4987717;28;46052;-75
2022/09/01 03:11:30;;;;;;;1.77;1.77;;;24.60;66.10;;;;;;4988135;28;44726;-74
2022/09/01 03:13:58;;;;;;;1.90;1.90;;;24.60;66.30;;;;;;4987887;28;43407;-74
2022/09/01 03:16:29;;;;;;;1.90;1.90;;;24.60;65.90;;;;;;5004644;28;43594;-73
2022/09/01 03:18:57;;;;;;;2.00;2.00;;;24.70;65.60;;;;;;5005680;28;43976;-74
2022/09/01 03:21:28;;;;;;;1.70;1.70;;;24.90;65.20;;;;;;4987605;28;44463;-74
2022/09/01 03:23:57;;;;;;;1.83;1.83;;;24.90;65.10;;;;;;5005754;28;43325;-75
2022/09/01 03:26:25;;;;;;;2.10;2.10;;;24.90;65.10;;;;;;4985043;28;43551;-73
2022/09/01 03:28:53;;;;;;;1.80;1.80;;;24.80;65.00;;;;;;4984275;28;45878;-75
2022/09/01 03:31:26;;;;;;;1.80;1.80;;;24.80;65.60;;;;;;4968270;28;43387;-74
2022/09/01 03:33:59;;;;;;;1.83;1.83;;;24.70;65.60;;;;;;4968229;28;43354;-73
2022/09/01 03:36:33;;;;;;;2.13;2.13;;;24.70;65.60;;;;;;4968450;28;43589;-74
2022/09/01 03:39:01;;;;;;;1.83;1.80;;;24.70;65.50;;;;;;4986694;28;43986;-74
2022/09/01 03:41:31;;;;;;;1.73;1.73;;;24.60;66.80;;;;;;4971543;28;44411;-73
2022/09/01 03:43:59;;;;;;;2.00;2.00;;;24.60;66.10;;;;;;4971477;28;43448;-74
2022/09/01 03:46:31;;;;;;;2.00;2.00;;;24.60;66.10;;;;;;4988442;28;43437;-74
2022/09/01 03:49:05;;;;;;;1.90;1.90;;;24.60;66.50;;;;;;4982790;28;43612;-74
2022/09/01 03:51:37;;;;;;;1.70;1.63;;;24.60;66.40;;;;;;4987951;28;44041;-73
2022/09/01 03:54:07;;;;;;;2.33;2.23;;;24.60;66.40;;;;;;4971398;28;43471;-74
2022/09/01 03:56:37;;;;;;;3.67;2.73;;;24.60;66.00;;;;;;4971898;28;43541;-74
2022/09/01 03:59:06;;;;;;;3.30;3.00;;;24.80;65.60;;;;;;4986969;28;45730;-74
2022/09/01 04:01:42;;;;;;;3.53;3.23;;;24.90;65.00;;;;;;4970949;28;46081;-73
2022/09/01 04:04:12;;;;;;;3.20;2.90;;;25.00;64.80;;;;;;4988939;28;43753;-74
2022/09/01 04:06:42;;;;;;;4.20;3.33;;;24.90;64.40;;;;;;4971429;28;43654;-73
2022/09/01 04:09:10;;;;;;;4.90;3.70;;;24.80;64.40;;;;;;4986630;28;43593;-74
2022/09/01 04:11:44;;;;;;;4.70;4.20;;;24.80;63.90;;;;;;4970706;28;44086;-75
2022/09/01 04:14:16;;;;;;;7.13;4.30;;;24.70;63.60;;;;;;4988764;28;43421;-74
2022/09/01 04:19:35;;;;;;;8.13;4.80;;;24.70;64.30;;;;;;4970550;28;43836;-74
2022/09/01 04:22:06;;;;;;;6.67;4.80;;;24.60;63.90;;;;;;4970770;28;44994;-74
2022/09/01 04:24:44;;;;;;;6.33;4.63;;;24.60;64.00;;;;;;4970821;28;43470;-75
2022/09/01 04:27:12;;;;;;;6.47;4.87;;;24.60;64.20;;;;;;4988219;28;44091;-73
2022/09/01 04:29:41;;;;;;;7.00;4.90;;;24.50;64.20;;;;;;4971453;28;46262;-75
2022/09/01 04:32:11;;;;;;;7.93;4.80;;;24.50;64.30;;;;;;4970512;28;44874;-74
2022/09/01 04:34:42;;;;;;;7.57;4.60;;;24.50;64.10;;;;;;4970621;28;43435;-74
2022/09/01 04:37:16;;;;;;;5.93;4.80;;;24.50;64.20;;;;;;4970737;28;43918;-73
2022/09/01 04:39:51;;;;;;;7.23;5.20;;;24.50;64.30;;;;;;4970683;28;46065;-73
2022/09/01 04:42:23;;;;;;;6.70;4.77;;;24.50;64.50;;;;;;4964151;28;44851;-74
2022/09/01 04:44:52;;;;;;;4.90;4.50;;;24.50;64.10;;;;;;4980176;28;43402;-73
2022/09/01 04:47:28;;;;;;;4.97;4.57;;;24.60;63.70;;;;;;4971421;28;44057;-74
2022/09/01 04:50:11;;;;;;;6.40;4.93;;;24.80;63.20;;;;;;4973276;28;45988;-74
2022/09/01 04:52:41;;;;;;;4.83;4.40;;;24.80;62.80;;;;;;4987962;28;43390;-73
2022/09/01 04:55:19;;;;;;;7.40;4.70;;;24.80;62.80;;;;;;4970985;28;43936;-73
2022/09/01 04:57:48;;;;;;;7.23;4.83;;;24.80;63.00;;;;;;4971332;28;43609;-75
2022/09/01 05:00:22;;;;;;;5.30;4.80;;;24.80;63.20;;;;;;4986891;28;44731;-74
2022/09/01 05:02:52;;;;;;;5.93;4.60;;;24.70;63.20;;;;;;4988632;28;43362;-75
2022/09/01 05:05:21;;;;;;;6.37;4.83;;;24.70;63.30;;;;;;4970790;28;43354;-73
2022/09/01 05:07:54;;;;;;;4.97;4.40;;;24.60;63.40;;;;;;4971122;28;43618;-74
2022/09/01 05:10:28;;;;;;;5.63;5.03;;;24.60;63.70;;;;;;4970854;28;44748;-73
2022/09/01 05:13:18;;;;;;;4.93;4.53;;;24.50;63.70;;;;;;4967679;28;44880;-73
2022/09/01 05:15:48;;;;;;;5.63;5.10;;;24.60;63.50;;;;;;4970510;28;43417;-74
2022/09/01 05:18:22;;;;;;;4.70;4.30;;;24.70;63.10;;;;;;4970557;28;43404;-74
2022/09/01 05:20:51;;;;;;;4.60;4.20;;;24.80;63.00;;;;;;4970647;28;45735;-74
2022/09/01 05:23:21;;;;;;;4.90;4.50;;;24.80;63.00;;;;;;4970501;28;45292;-73
2022/09/01 05:25:53;;;;;;;4.63;4.23;;;24.70;63.00;;;;;;4994257;28;43546;-73
2022/09/01 05:28:24;;;;;;;4.70;4.30;;;24.70;63.20;;;;;;4990363;28;43535;-74
2022/09/01 05:30:53;;;;;;;4.40;4.10;;;24.60;63.20;;;;;;4990019;28;45860;-74
2022/09/01 05:33:22;;;;;;;4.57;4.17;;;24.60;63.30;;;;;;4999865;28;44217;-73
2022/09/01 05:35:55;;;;;;;4.37;4.03;;;24.60;63.40;;;;;;4996865;28;43426;-74
2022/09/01 05:38:24;;;;;;;4.43;4.03;;;24.50;63.40;;;;;;5003785;28;43892;-75
2022/09/01 05:40:57;;;;;;;4.53;4.10;;;24.50;63.50;;;;;;5003023;28;45462;-74
2022/09/01 05:43:29;;;;;;;4.80;4.37;;;24.50;63.40;;;;;;5003354;28;43406;-74
2022/09/01 05:45:57;;;;;;;3.67;3.43;;;24.50;63.50;;;;;;4989794;28;43924;-72
2022/09/01 05:48:38;;;;;;;4.30;4.00;;;24.40;63.40;;;;;;4990216;28;43569;-73
2022/09/01 05:51:08;;;;;;;4.17;3.87;;;24.40;63.40;;;;;;4989187;28;45967;-74
2022/09/01 05:53:58;;;;;;;3.83;3.63;;;24.40;63.30;;;;;;4989908;28;43958;-73
2022/09/01 05:56:28;;;;;;;4.40;4.00;;;24.50;62.80;;;;;;5000797;28;43828;-74
2022/09/01 05:58:58;;;;;;;4.97;4.13;;;24.70;62.40;;;;;;4990130;28;43723;-74
2022/09/01 06:01:47;;;;;;;3.70;3.50;;;24.80;62.00;;;;;;4988817;28;45788;-74
2022/09/01 06:04:18;;;;;;;4.20;3.90;;;24.80;61.70;;;;;;5005128;28;43327;-73
2022/09/01 06:06:48;;;;;;;4.20;4.00;;;24.70;61.90;;;;;;5006060;28;43923;-74
2022/09/01 06:09:36;;;;;;;3.80;3.50;;;24.70;62.20;;;;;;5006608;28;43505;-74
2022/09/01 06:12:05;;;;;;;3.97;3.77;;;24.60;62.20;;;;;;5005310;28;45878;-75
2022/09/01 06:14:34;;;;;;;3.63;3.43;;;24.60;62.30;;;;;;5005606;28;43953;-74
2022/09/01 06:17:03;;;;;;;3.60;3.40;;;24.50;62.50;;;;;;4988987;28;43374;-75
2022/09/01 06:19:32;;;;;;;3.37;3.23;;;24.50;62.80;;;;;;4989576;28;43449;-72
2022/09/01 06:22:04;;;;;;;3.77;3.57;;;24.50;62.70;;;;;;4988402;28;46889;-73
2022/09/01 06:24:34;;;;;;;3.67;3.43;;;24.40;62.60;;;;;;4988592;28;44619;-73
2022/09/01 06:27:08;;;;;;;3.07;2.97;;;24.40;62.90;;;;;;5021897;28;43460;-73
2022/09/01 06:29:38;;;;;;;3.77;3.47;;;24.40;63.00;;;;;;5007500;28;43441;-73
2022/09/01 06:32:08;;;;;;;3.73;3.53;;;24.40;62.90;;;;;;5006738;28;43738;-73
2022/09/01 06:34:38;;;;;;;3.43;3.30;;;24.40;62.60;;;;;;4999696;28;44766;-73
2022/09/01 06:37:06;;;;;;;3.63;3.33;;;24.50;62.20;;;;;;4998375;28;43706;-74
2022/09/01 06:39:36;;;;;;;3.30;3.20;;;24.60;61.90;;;;;;5022529;28;43508;-74
2022/09/01 06:42:05;;;;;;;3.33;3.20;;;24.70;61.80;;;;;;5004899;28;44934;-73
2022/09/01 06:44:46;;;;;;;3.20;3.10;;;24.70;61.70;;;;;;4989111;28;45029;-73
2022/09/01 06:47:14;;;;;;;3.13;2.93;;;24.60;62.10;;;;;;5021335;28;43406;-74
2022/09/01 06:49:43;;;;;;;3.17;3.07;;;24.50;62.00;;;;;;5022480;28;43660;-73
2022/09/01 06:52:19;;;;;;;3.10;3.00;;;24.50;62.00;;;;;;5004690;28;45415;-74
2022/09/01 06:54:50;;;;;;;3.00;2.90;;;24.50;62.40;;;;;;4986659;28;43459;-73
2022/09/01 06:57:20;;;;;;;3.00;2.90;;;24.40;62.40;;;;;;4988622;28;43394;-74
2022/09/01 07:00:16;;;;;;;3.37;3.27;;;24.40;62.60;;;;;;5021904;28;43405;-74
2022/09/01 07:02:47;;;;;;;3.33;3.13;;;24.40;62.50;;;;;;5003759;28;44738;-73
2022/09/01 07:05:46;;;;;;;2.77;2.67;;;24.40;62.70;;;;;;4996477;28;43882;-73
2022/09/01 07:09:02;;;;;;;3.23;3.13;;;24.40;62.80;;;;;;4968628;28;43696;-74
2022/09/01 07:12:18;;;;;;;3.13;3.03;;;24.30;62.80;;;;;;4998472;28;43917;-74
2022/09/01 07:14:57;;;;;;;3.10;2.90;;;24.40;62.40;;;;;;5003808;28;45700;-73
2022/09/01 07:17:47;;;;;;;2.90;2.70;;;24.50;61.90;;;;;;5005839;28;43452;-73
2022/09/01 07:20:16;;;;;;;3.13;3.03;;;24.60;61.50;;;;;;4998663;28;43475;-74
2022/09/01 07:22:53;;;;;;;2.77;2.67;;;24.70;61.50;;;;;;5021806;28;44062;-74
2022/09/01 07:25:40;;;;;;;2.90;2.80;;;24.60;61.70;;;;;;5001330;28;45948;-73
2022/09/01 07:28:41;;;;;;;2.80;2.70;;;24.50;61.80;;;;;;4968397;28;43744;-73
2022/09/01 07:31:19;;;;;;;3.07;2.87;;;24.50;61.90;;;;;;4967857;28;43491;-74
2022/09/01 07:34:11;;;;;;;3.03;2.93;;;24.50;62.10;;;;;;4985231;28;43514;-75
2022/09/01 07:37:01;;;;;;;3.00;2.60;;;24.40;62.30;;;;;;4980996;28;46130;-74
2022/09/01 07:39:50;;;;;;;2.80;2.70;;;24.40;62.40;;;;;;4968545;28;43330;-73
2022/09/01 07:42:30;;;;;;;2.87;2.77;;;24.40;62.50;;;;;;4968753;28;43743;-73
2022/09/01 07:45:54;;;;;;;2.77;2.67;;;24.30;62.50;;;;;;4962451;28;43417;-73
2022/09/01 07:48:27;;;;;;;2.60;2.50;;;24.30;62.80;;;;;;4968562;28;46759;-74
2022/09/01 07:51:18;;;;;;;3.10;2.90;;;24.30;62.80;;;;;;4984238;28;44700;-73
2022/09/01 07:54:04;;;;;;;2.93;2.80;;;24.40;62.50;;;;;;4968603;28;43370;-73
2022/09/01 07:56:32;;;;;;;2.93;2.83;;;24.50;62.00;;;;;;4986817;28;43984;-73
2022/09/01 07:59:08;;;;;;;2.60;2.60;;;24.60;61.80;;;;;;4967478;28;44142;-75
2022/09/01 08:01:49;;;;;;;2.70;2.60;;;24.60;61.60;;;;;;4968082;28;43434;-73
2022/09/01 08:04:21;;;;;;;2.63;2.53;;;24.60;61.70;;;;;;4968046;28;44271;-73
2022/09/01 08:06:50;;;;;;;3.07;2.90;;;24.50;61.90;;;;;;4968877;28;43498;-74
2022/09/01 08:09:19;;;;;;;2.60;2.60;;;24.50;62.10;;;;;;4984546;28;44308;-74
2022/09/01 08:12:07;;;;;;;2.83;2.67;;;24.50;62.10;;;;;;4967878;28;43421;-73
2022/09/01 08:14:41;;;;;;;2.90;2.80;;;24.40;62.20;;;;;;4968491;28;44021;-74
2022/09/01 08:17:11;;;;;;;2.60;2.50;;;24.40;62.40;;;;;;4968443;28;43470;-74
2022/09/01 08:20:05;;;;;;;2.60;2.50;;;24.30;62.60;;;;;;4985130;28;43844;-75
2022/09/01 08:22:47;;;;;;;2.93;2.83;;;24.30;62.60;;;;;;4968498;28;43760;-74
2022/09/01 08:25:20;;;;;;;2.20;2.20;;;24.30;62.50;;;;;;4967845;28;43881;-74
2022/09/01 08:27:53;;;;;;;2.60;2.50;;;24.30;62.70;;;;;;4989875;28;43405;-75
2022/09/01 08:30:27;;;;;;;2.90;2.80;;;24.20;62.70;;;;;;4971625;28;46039;-73
2022/09/01 08:32:57;;;;;;;2.60;2.50;;;24.30;62.70;;;;;;4971311;28;44994;-73
2022/09/01 08:35:28;;;;;;;2.47;2.40;;;24.40;62.50;;;;;;4988857;28;43897;-73
2022/09/01 08:37:58;;;;;;;2.60;2.40;;;24.50;62.10;;;;;;4989531;28;43645;-74
2022/09/01 08:40:26;;;;;;;2.70;2.60;;;24.60;61.60;;;;;;4971149;28;45293;-73
2022/09/01 08:43:00;;;;;;;2.50;2.40;;;24.60;61.60;;;;;;4970909;28;44878;-74
2022/09/01 08:45:30;;;;;;;2.67;2.57;;;24.60;61.70;;;;;;4971447;28;43711;-73
2022/09/01 08:48:08;;;;;;;2.80;2.70;;;24.50;61.90;;;;;;4971186;28;43381;-74
2022/09/01 08:50:59;;;;;;;2.70;2.50;;;24.50;62.10;;;;;;4970713;28;44120;-74
2022/09/01 08:53:44;;;;;;;2.33;2.33;;;24.40;62.20;;;;;;4970881;28;44569;-73
2022/09/01 08:56:12;;;;;;;2.47;2.37;;;24.40;62.30;;;;;;4970879;28;43421;-73
2022/09/01 08:58:41;;;;;;;2.43;2.33;;;24.30;62.50;;;;;;4971403;28;43580;-73
2022/09/01 09:01:36;;;;;;;2.33;2.33;;;24.30;62.40;;;;;;4988544;28;43597;-75
2022/09/01 09:04:13;;;;;;;2.57;2.57;;;24.40;62.20;;;;;;4970687;28;45155;-73
2022/09/01 09:06:45;;;;;;;2.30;2.30;;;24.40;62.80;;;;;;4988873;28;43378;-74
2022/09/01 09:09:13;;;;;;;2.60;2.50;;;24.40;62.20;;;;;;4988643;28;43668;-73
2022/09/01 09:11:54;;;;;;;2.33;2.23;;;24.40;62.40;;;;;;4988276;28;43613;-74
2022/09/01 09:14:38;;;;;;;2.70;2.60;;;24.40;62.50;;;;;;4987150;28;43963;-74
2022/09/01 09:17:06;;;;;;;2.50;2.40;;;24.30;62.30;;;;;;4988083;28;43314;-74
2022/09/01 09:19:36;;;;;;;2.40;2.40;;;24.30;62.40;;;;;;4989028;28;43537;-74
2022/09/01 09:22:05;;;;;;;2.20;2.20;;;24.30;62.70;;;;;;4969962;28;45816;-75
2022/09/01 09:24:47;;;;;;;2.33;2.33;;;24.30;62.80;;;;;;4991738;28;43464;-74
2022/09/01 09:27:19;;;;;;;2.20;2.20;;;24.30;62.40;;;;;;5008088;28;43366;-73
2022/09/01 09:29:49;;;;;;;2.30;2.30;;;24.40;61.90;;;;;;4990531;28;43631;-72
2022/09/01 09:32:17;;;;;;;2.20;2.20;;;24.50;61.80;;;;;;5008103;28;43833;-74
2022/09/01 09:35:18;;;;;;;2.43;2.43;;;24.50;61.80;;;;;;4989818;28;44983;-74
2022/09/01 09:37:46;;;;;;;2.10;2.10;;;24.50;62.00;;;;;;5007182;28;43307;-73
2022/09/01 09:40:14;;;;;;;2.40;2.40;;;24.40;62.20;;;;;;5007957;28;43393;-74
2022/09/01 09:43:01;;;;;;;2.40;2.40;;;24.40;62.30;;;;;;4989743;28;46259;-72
2022/09/01 09:45:32;;;;;;;1.98;1.98;;;24.40;62.40;;;;;;5008020;28;43492;-74
2022/09/01 09:48:01;;;;;;;2.40;2.30;;;24.30;62.40;;;;;;5006065;28;43429;-76
2022/09/01 09:50:31;;;;;;;2.50;2.40;;;24.30;63.40;;;;;;5008610;28;43368;-74
2022/09/01 09:53:14;;;;;;;2.20;2.20;;;24.30;62.80;;;;;;4989580;28;46584;-73
2022/09/01 09:55:57;;;;;;;2.27;2.27;;;24.30;62.70;;;;;;5007877;28;43481;-74
2022/09/01 09:58:27;;;;;;;2.30;2.30;;;24.20;62.70;;;;;;5007594;28;43478;-73
2022/09/01 10:01:05;;;;;;;2.60;2.50;;;24.20;62.90;;;;;;5006414;28;43422;-75
2022/09/01 10:03:35;;;;;;;2.20;2.20;;;24.20;63.00;;;;;;5007421;28;43867;-73
2022/09/01 10:06:06;;;;;;;2.30;2.20;;;24.30;62.70;;;;;;5006980;28;43520;-74
2022/09/01 10:08:43;;;;;;;2.20;2.20;;;24.40;62.50;;;;;;4989824;28;43403;-74
2022/09/01 10:11:26;;;;;;;2.80;2.70;;;24.50;62.00;;;;;;5007921;28;43350;-72
2022/09/01 10:14:02;;;;;;;2.33;2.33;;;24.50;61.90;;;;;;5003646;28;43725;-74
2022/09/01 10:16:31;;;;;;;2.10;2.10;;;24.50;62.00;;;;;;5007300;28;43358;-73
2022/09/01 10:19:00;;;;;;;2.30;2.30;;;24.40;62.20;;;;;;5007259;28;43832;-74
2022/09/01 10:21:32;;;;;;;2.50;2.40;;;24.40;62.40;;;;;;5007569;28;43563;-74
2022/09/01 10:24:09;;;;;;;2.40;2.40;;;24.40;62.50;;;;;;4988304;28;45330;-74
2022/09/01 10:26:50;;;;;;;2.50;2.40;;;24.30;62.40;;;;;;5004862;28;44738;-73
2022/09/01 10:29:20;;;;;;;2.10;2.10;;;24.30;62.70;;;;;;4999078;28;43541;-74
2022/09/01 10:31:48;;;;;;;2.33;2.23;;;24.30;62.70;;;;;;5001755;28;43366;-74
2022/09/01 10:34:37;;;;;;;2.17;2.13;;;24.30;62.50;;;;;;5007022;28;43851;-74
2022/09/01 10:37:10;;;;;;;2.20;2.20;;;24.40;62.20;;;;;;5006597;28;43500;-73
2022/09/01 10:40:10;;;;;;;2.30;2.30;;;24.50;61.90;;;;;;4989028;28;43420;-74
2022/09/01 10:42:41;;;;;;;2.03;2.03;;;24.60;61.90;;;;;;5007509;28;43458;-74
2022/09/01 10:45:21;;;;;;;2.60;2.50;;;24.50;62.00;;;;;;4988147;28;45807;-74
2022/09/01 10:47:50;;;;;;;2.30;2.30;;;24.50;62.10;;;;;;5004061;28;44447;-74
2022/09/01 10:50:26;;;;;;;2.27;2.27;;;24.40;62.10;;;;;;5006462;28;43481;-73
2022/09/01 10:53:05;;;;;;;2.10;2.10;;;24.40;62.30;;;;;;5007233;28;43924;-73
2022/09/01 10:55:37;;;;;;;2.07;2.07;;;24.30;63.00;;;;;;4988840;28;46087;-73
2022/09/01 10:58:34;;;;;;;2.30;2.30;;;24.30;62.50;;;;;;5000470;28;43350;-74
2022/09/01 11:01:55;;;;;;;2.40;2.40;;;24.30;62.60;;;;;;5000424;28;43477;-74
2022/09/01 11:05:18;;;;;;;2.20;2.20;;;24.30;62.70;;;;;;5001200;28;43385;-74
2022/09/01 11:07:46;;;;;;;2.47;2.47;;;24.20;62.70;;;;;;5006606;28;43728;-73
2022/09/01 11:10:40;;;;;;;2.30;2.30;;;24.20;63.00;;;;;;4999481;28;44446;-74
2022/09/01 11:13:31;;;;;;;2.43;2.43;;;24.20;62.70;;;;;;5004885;28;43678;-74
2022/09/01 11:16:27;;;;;;;2.43;2.37;;;24.30;62.50;;;;;;5006823;28;43422;-74
2022/09/01 11:19:33;;;;;;;2.50;2.40;;;24.50;62.10;;;;;;5005780;28;44038;-74
2022/09/01 11:22:11;;;;;;;2.10;2.10;;;24.60;61.80;;;;;;5006254;28;43816;-74
2022/09/01 11:24:51;;;;;;;2.30;2.17;;;24.60;61.80;;;;;;5006061;28;43505;-74
2022/09/01 11:27:57;;;;;;;2.47;2.47;;;24.50;61.90;;;;;;5006715;28;43702;-73
2022/09/01 11:30:32;;;;;;;2.17;2.17;;;24.40;62.00;;;;;;5006195;28;43904;-74
2022/09/01 11:33:13;;;;;;;2.23;2.23;;;24.40;62.10;;;;;;5006416;28;43373;-74
2022/09/01 11:35:41;;;;;;;1.90;1.90;;;24.40;62.20;;;;;;5006552;28;43895;-73
2022/09/01 11:38:09;;;;;;;2.20;2.20;;;24.30;62.40;;;;;;5006437;28;43406;-74
2022/09/01 11:40:37;;;;;;;2.13;2.13;;;24.30;62.60;;;;;;5005972;28;43902;-73
2022/09/01 11:43:07;;;;;;;2.27;2.27;;;24.30;62.60;;;;;;5004631;28;44651;-74
2022/09/01 11:45:42;;;;;;;2.40;2.40;;;24.30;62.70;;;;;;5006207;28;43434;-73
2022/09/01 11:48:11;;;;;;;2.20;2.20;;;24.20;62.70;;;;;;5006593;28;43306;-73
2022/09/01 11:50:40;;;;;;;2.10;2.10;;;24.20;63.00;;;;;;4994475;28;47049;-73
2022/09/01 11:53:10;;;;;;;2.20;2.20;;;24.20;62.70;;;;;;4999307;28;43402;-74
2022/09/01 11:55:39;;;;;;;2.37;2.37;;;24.30;62.50;;;;;;4985435;28;43389;-74
2022/09/01 11:58:11;;;;;;;2.10;2.10;;;24.40;62.10;;;;;;4988044;28;43473;-73
2022/09/01 12:00:44;;;;;;;2.03;2.03;;;24.50;62.00;;;;;;4989123;28;45643;-74
2022/09/01 12:03:20;;;;;;;2.17;2.17;;;24.50;62.10;;;;;;5009118;28;43452;-73
2022/09/01 12:05:53;;;;;;;2.07;2.07;;;24.40;62.00;;;;;;4983762;28;43453;-73
2022/09/01 12:08:21;;;;;;;2.30;2.30;;;24.40;62.30;;;;;;4991813;28;43393;-73
2022/09/01 12:10:53;;;;;;;2.10;2.10;;;24.40;62.50;;;;;;4991315;28;45930;-73
2022/09/01 12:13:23;;;;;;;2.10;2.10;;;24.30;62.50;;;;;;4991011;28;44751;-73
2022/09/01 12:15:53;;;;;;;2.20;2.20;;;24.30;62.50;;;;;;5009550;28;43362;-74
2022/09/01 12:18:46;;;;;;;2.20;2.20;;;24.30;62.90;;;;;;4992032;28;43477;-73
2022/09/01 12:21:19;;;;;;;2.10;2.10;;;24.20;63.00;;;;;;5008756;28;43696;-73
2022/09/01 12:23:47;;;;;;;2.40;2.40;;;24.30;62.70;;;;;;4993919;28;44402;-72
2022/09/01 12:26:16;;;;;;;2.20;2.20;;;24.40;62.50;;;;;;5008349;28;43392;-74
2022/09/01 12:28:47;;;;;;;2.30;2.20;;;24.40;62.10;;;;;;5009475;28;43327;-74
2022/09/01 12:31:17;;;;;;;2.10;2.10;;;24.40;62.00;;;;;;5006622;28;45722;-73
2022/09/01 12:33:45;;;;;;;2.07;2.07;;;24.40;62.00;;;;;;5008829;28;43607;-73
2022/09/01 12:36:24;;;;;;;2.20;2.10;;;24.30;62.20;;;;;;5008916;28;43405;-74
2022/09/01 12:38:52;;;;;;;2.23;2.00;;;24.30;62.80;;;;;;5009378;28;43350;-73
2022/09/01 12:41:25;;;;;;;1.80;1.80;;;24.30;62.70;;;;;;5008706;28;43755;-75
2022/09/01 12:43:57;;;;;;;1.93;1.93;;;24.30;62.70;;;;;;5008717;28;44028;-75
2022/09/01 12:46:41;;;;;;;2.40;2.40;;;24.20;62.80;;;;;;4990933;28;43497;-74
2022/09/01 12:49:19;;;;;;;2.33;2.07;;;24.20;63.10;;;;;;5001203;28;43954;-74
2022/09/01 12:51:47;;;;;;;2.10;2.10;;;24.30;62.90;;;;;;5008902;28;43739;-74
2022/09/01 12:54:15;;;;;;;1.93;1.93;;;24.40;62.60;;;;;;4990382;28;43447;-74
2022/09/01 12:56:48;;;;;;;2.43;2.33;;;24.40;62.20;;;;;;4990662;28;43374;-73
2022/09/01 12:59:23;;;;;;;2.20;2.20;;;24.50;62.20;;;;;;4990630;28;43775;-74
2022/09/01 13:02:27;;;;;;;1.80;1.80;;;24.40;62.00;;;;;;5008046;28;44002;-73
2022/09/01 13:04:55;;;;;;;2.23;2.23;;;24.40;62.30;;;;;;5000060;28;43501;-74
2022/09/01 13:07:24;;;;;;;1.97;1.97;;;24.30;62.50;;;;;;5006404;28;43402;-74
2022/09/01 13:09:52;;;;;;;2.00;2.00;;;24.30;62.60;;;;;;5008567;28;43853;-74
2022/09/01 13:12:20;;;;;;;1.90;1.90;;;24.30;62.50;;;;;;5007878;28;43737;-73
2022/09/01 13:14:50;;;;;;;2.27;2.03;;;24.30;62.70;;;;;;5008299;28;43984;-74
2022/09/01 13:17:19;;;;;;;2.43;2.20;;;24.20;63.10;;;;;;5006464;28;43389;-73
2022/09/01 13:19:47;;;;;;;2.10;2.10;;;24.20;62.90;;;;;;5000619;28;43458;-73
2022/09/01 13:22:14;;;;;;;2.20;2.20;;;24.20;62.80;;;;;;5008049;28;43594;-73
2022/09/01 13:24:42;;;;;;;1.90;1.90;;;24.20;62.90;;;;;;5007904;28;43358;-74
2022/09/01 13:27:11;;;;;;;1.90;1.90;;;24.20;63.30;;;;;;5008102;28;43705;-73
2022/09/01 13:29:50;;;;;;;2.00;2.00;;;24.20;64.10;;;;;;5008658;28;43397;-74